Time;durP1;ratioP1;P1;durP2;ratioP2;P2;SDS_P1;SDS_P2;PMS_P1;PMS_P2;Temp;Humidity;BMP_temperature;BMP_pressure;BME280_temperature;BME280_humidity;BME280_pressure;Samples;Min_cycle;Max_cycle;Signal;HPM_P1;HPM_P2
2024/02/07 00:02:10;;;;;;;6.72;3.97;;;-3.60;99.90;;;;;;5075802;28;20024;-82
2024/02/07 00:04:35;;;;;;;8.50;4.25;;;-3.60;99.90;;;;;;5076522;28;20115;-80
2024/02/07 00:07:01;;;;;;;7.40;4.97;;;-3.60;99.90;;;;;;5075372;28;20069;-80
2024/02/07 00:09:27;;;;;;;6.70;4.50;;;-3.70;99.90;;;;;;5075447;28;20125;-79
2024/02/07 00:11:53;;;;;;;9.40;5.30;;;-3.70;99.90;;;;;;5074866;28;20446;-80
2024/02/07 00:14:23;;;;;;;8.48;5.97;;;-3.70;99.90;;;;;;5074511;28;20103;-81
2024/02/07 00:16:56;;;;;;;9.85;6.43;;;-3.70;99.90;;;;;;5075195;28;20086;-81
2024/02/07 00:19:21;;;;;;;7.82;5.55;;;-3.70;99.90;;;;;;5075928;28;20020;-80
2024/02/07 00:21:47;;;;;;;13.23;8.55;;;-3.80;99.90;;;;;;5076689;28;20025;-81
2024/02/07 00:24:13;;;;;;;16.88;10.30;;;-3.80;99.90;;;;;;5069814;28;20074;-82
2024/02/07 00:26:39;;;;;;;15.65;10.35;;;-3.80;99.90;;;;;;5069253;28;20116;-80
2024/02/07 00:29:05;;;;;;;13.27;10.02;;;-3.80;99.90;;;;;;5073814;28;20078;-80
2024/02/07 00:31:30;;;;;;;15.15;8.88;;;-3.90;99.90;;;;;;5073818;28;20078;-81
2024/02/07 00:33:56;;;;;;;13.07;10.65;;;-3.90;99.90;;;;;;5073358;28;20016;-82
2024/02/07 00:36:22;;;;;;;16.50;10.32;;;-3.90;99.90;;;;;;5072419;28;20431;-82
2024/02/07 00:38:48;;;;;;;8.02;5.97;;;-3.90;99.90;;;;;;5071209;28;20586;-82
2024/02/07 00:41:21;;;;;;;9.55;6.43;;;-3.80;99.90;;;;;;5064716;28;20386;-82
2024/02/07 00:43:47;;;;;;;10.52;6.25;;;-3.80;99.90;;;;;;5081747;28;20097;-82
2024/02/07 00:46:13;;;;;;;8.73;6.75;;;-3.80;99.90;;;;;;5063519;28;20055;-83
2024/02/07 00:48:42;;;;;;;7.88;6.13;;;-3.70;99.90;;;;;;5072605;28;20056;-81
2024/02/07 00:51:08;;;;;;;7.07;5.53;;;-3.70;99.90;;;;;;5069539;28;20021;-81
2024/02/07 00:53:34;;;;;;;7.47;5.53;;;-3.60;99.90;;;;;;5072428;28;20028;-80
2024/02/07 00:56:00;;;;;;;7.22;5.47;;;-3.60;99.90;;;;;;5073184;28;20140;-82
2024/02/07 00:58:26;;;;;;;8.27;5.65;;;-3.50;99.90;;;;;;5069837;28;20029;-82
2024/02/07 01:00:52;;;;;;;6.50;4.38;;;-3.50;99.90;;;;;;5073722;28;20390;-82
2024/02/07 01:03:20;;;;;;;7.00;5.15;;;-3.50;99.90;;;;;;5075559;28;20429;-81
2024/02/07 01:05:46;;;;;;;7.53;5.75;;;-3.50;99.90;;;;;;5073653;28;20039;-81
2024/02/07 01:08:13;;;;;;;7.70;5.50;;;-3.50;99.90;;;;;;5072795;28;20044;-82
2024/02/07 01:10:39;;;;;;;6.18;5.25;;;-3.40;99.90;;;;;;5071303;28;20028;-81
2024/02/07 01:13:06;;;;;;;6.70;4.15;;;-3.40;99.90;;;;;;5072120;28;20512;-81
2024/02/07 01:15:32;;;;;;;6.30;5.13;;;-3.40;99.90;;;;;;5072561;28;20021;-82
2024/02/07 01:17:58;;;;;;;6.35;4.85;;;-3.40;99.90;;;;;;5072376;28;20035;-81
2024/02/07 01:20:24;;;;;;;6.82;5.28;;;-3.30;99.90;;;;;;5072560;28;20070;-82
2024/02/07 01:22:50;;;;;;;6.97;5.22;;;-3.30;99.90;;;;;;5075356;28;20019;-80
2024/02/07 01:25:17;;;;;;;6.82;5.65;;;-3.20;99.90;;;;;;5076773;28;20032;-82
2024/02/07 01:27:43;;;;;;;6.30;4.80;;;-3.30;99.90;;;;;;5089554;28;20039;-80
2024/02/07 01:30:12;;;;;;;7.10;4.03;;;-3.20;99.90;;;;;;5072679;28;20013;-81
2024/02/07 01:32:41;;;;;;;8.43;5.13;;;-3.30;99.90;;;;;;5075876;28;20112;-80
2024/02/07 01:35:09;;;;;;;7.47;4.78;;;-3.40;99.90;;;;;;5070550;28;20009;-82
2024/02/07 01:37:38;;;;;;;6.10;4.72;;;-3.40;99.90;;;;;;5072137;28;20031;-81
2024/02/07 01:40:11;;;;;;;7.47;5.45;;;-3.60;99.90;;;;;;5072720;28;20319;-82
2024/02/07 01:42:37;;;;;;;9.45;5.03;;;-3.70;99.90;;;;;;5073652;28;20024;-80
2024/02/07 01:45:20;;;;;;;7.22;4.80;;;-3.70;99.90;;;;;;5074040;28;20034;-81
2024/02/07 01:47:47;;;;;;;7.60;4.63;;;-3.80;99.90;;;;;;5072823;28;20025;-82
2024/02/07 01:50:13;;;;;;;11.47;5.97;;;-3.90;99.90;;;;;;5073234;28;20016;-80
2024/02/07 01:52:41;;;;;;;8.45;5.50;;;-3.90;99.90;;;;;;5068966;28;20027;-81
2024/02/07 01:55:06;;;;;;;;;;;-4.00;99.90;;;;;;5072836;28;20023;-82
2024/02/07 01:57:33;;;;;;;7.82;5.10;;;-4.10;99.90;;;;;;5072238;28;19999;-81
2024/02/07 02:00:00;;;;;;;10.27;5.25;;;-4.10;99.90;;;;;;5072119;28;20021;-81
2024/02/07 02:02:26;;;;;;;13.10;5.93;;;-4.20;99.90;;;;;;5070730;28;20424;-82
2024/02/07 02:04:52;;;;;;;10.65;6.00;;;-4.20;99.90;;;;;;5072322;28;20016;-80
2024/02/07 02:07:19;;;;;;;8.25;6.72;;;-4.30;99.90;;;;;;5068342;28;20029;-80
2024/02/07 02:09:45;;;;;;;8.38;5.47;;;-4.30;99.90;;;;;;5061855;28;20048;-79
2024/02/07 02:12:12;;;;;;;14.25;6.32;;;-4.30;99.90;;;;;;5070576;28;20115;-79
2024/02/07 02:14:39;;;;;;;7.93;5.30;;;-4.40;99.90;;;;;;5072553;28;20029;-80
2024/02/07 02:17:05;;;;;;;13.70;7.15;;;-4.30;99.90;;;;;;5075081;28;20086;-81
2024/02/07 02:19:30;;;;;;;11.38;7.45;;;-4.40;99.90;;;;;;5071071;28;20029;-83
2024/02/07 02:22:27;;;;;;;9.75;5.30;;;-4.40;99.90;;;;;;5072160;28;20028;-81
2024/02/07 02:25:11;;;;;;;8.15;5.57;;;-4.40;99.90;;;;;;5062987;28;20024;-82
2024/02/07 02:27:37;;;;;;;8.63;6.15;;;-4.40;99.90;;;;;;5076465;28;20016;-80
2024/02/07 02:30:11;;;;;;;8.98;6.00;;;-4.40;99.90;;;;;;5078040;28;20028;-80
2024/02/07 02:32:42;;;;;;;11.23;6.45;;;-4.40;99.90;;;;;;5083556;28;20076;-81
2024/02/07 02:35:09;;;;;;;10.07;6.97;;;-4.40;99.90;;;;;;5077370;28;20028;-82
2024/02/07 02:37:35;;;;;;;7.25;5.55;;;-4.40;99.90;;;;;;5068226;28;20017;-80
2024/02/07 02:40:08;;;;;;;10.90;6.72;;;-4.40;99.90;;;;;;5070442;28;20067;-81
2024/02/07 02:42:34;;;;;;;12.55;6.07;;;-4.50;99.90;;;;;;5072229;28;20377;-83
2024/02/07 02:45:00;;;;;;;8.02;6.20;;;-4.50;99.90;;;;;;5071906;28;20027;-83
2024/02/07 02:47:28;;;;;;;7.90;5.70;;;-4.50;99.90;;;;;;5071796;28;20025;-80
2024/02/07 02:49:55;;;;;;;12.73;7.07;;;-4.50;99.90;;;;;;5070447;28;20051;-81
2024/02/07 02:52:22;;;;;;;8.83;6.57;;;-4.50;99.90;;;;;;5070791;28;20029;-81
2024/02/07 02:54:49;;;;;;;9.13;6.60;;;-4.50;99.90;;;;;;5072425;28;20086;-80
2024/02/07 02:57:18;;;;;;;11.02;6.82;;;-4.50;99.90;;;;;;5074291;28;20515;-80
2024/02/07 02:59:44;;;;;;;8.80;6.32;;;-4.50;99.90;;;;;;5077092;28;20031;-81
2024/02/07 03:02:10;;;;;;;10.88;7.38;;;-4.50;99.90;;;;;;5076436;28;20084;-80
2024/02/07 03:04:42;;;;;;;15.05;7.18;;;-4.40;99.90;;;;;;5075800;28;20091;-81
2024/02/07 03:09:53;;;;;;;11.45;7.53;;;-4.40;99.90;;;;;;5074155;28;20086;-80
2024/02/07 03:12:18;;;;;;;8.98;7.15;;;-4.40;99.90;;;;;;5075530;28;20016;-80
2024/02/07 03:14:47;;;;;;;11.25;8.00;;;-4.40;99.90;;;;;;5074531;28;20033;-81
2024/02/07 03:17:14;;;;;;;9.82;8.05;;;-4.40;99.90;;;;;;5076917;28;20036;-82
2024/02/07 03:19:40;;;;;;;11.80;8.30;;;-4.40;99.90;;;;;;5060701;28;20135;-81
2024/02/07 03:22:06;;;;;;;12.00;7.80;;;-4.40;99.90;;;;;;5075236;28;20088;-84
2024/02/07 03:24:32;;;;;;;10.65;7.75;;;-4.40;99.90;;;;;;5076246;28;20470;-82
2024/02/07 03:26:58;;;;;;;10.23;8.43;;;-4.40;99.90;;;;;;5071051;28;20370;-83
2024/02/07 03:29:25;;;;;;;10.95;7.45;;;-4.40;99.90;;;;;;5076483;28;20024;-80
2024/02/07 03:31:53;;;;;;;14.45;8.73;;;-4.40;99.90;;;;;;5075599;28;20119;-81
2024/02/07 03:34:20;;;;;;;;;;;-4.40;99.90;;;;;;5075138;28;20031;-79
2024/02/07 03:36:46;;;;;;;11.65;8.90;;;-4.40;99.90;;;;;;5074928;28;19912;-80
2024/02/07 03:39:13;;;;;;;14.88;9.45;;;-4.40;99.90;;;;;;5069968;28;20482;-79
2024/02/07 03:41:42;;;;;;;17.25;8.77;;;-4.40;99.90;;;;;;5073443;28;20355;-79
2024/02/07 03:44:12;;;;;;;15.70;9.07;;;-4.50;99.90;;;;;;5075470;28;20398;-79
2024/02/07 03:46:40;;;;;;;15.85;9.38;;;-4.60;99.90;;;;;;5074182;28;20109;-80
2024/02/07 03:49:07;;;;;;;16.65;10.45;;;-4.60;99.90;;;;;;5073974;28;20478;-79
2024/02/07 03:51:35;;;;;;;16.13;11.00;;;-4.50;99.90;;;;;;5071610;28;20100;-80
2024/02/07 03:54:04;;;;;;;19.92;10.85;;;-4.50;99.90;;;;;;5070787;28;20039;-80
2024/02/07 03:56:33;;;;;;;20.38;11.38;;;-4.50;99.90;;;;;;5074134;28;20024;-79
2024/02/07 03:58:58;;;;;;;16.50;10.60;;;-4.50;99.90;;;;;;5073825;28;20020;-80
2024/02/07 04:01:24;;;;;;;17.95;11.85;;;-4.50;99.90;;;;;;5074065;28;20086;-79
2024/02/07 04:03:52;;;;;;;19.27;12.05;;;-4.40;99.90;;;;;;5074022;28;20103;-80
2024/02/07 04:06:18;;;;;;;21.75;12.85;;;-4.40;99.90;;;;;;5074376;28;20042;-79
2024/02/07 04:08:44;;;;;;;16.83;10.77;;;-4.40;99.90;;;;;;5073837;28;20076;-79
2024/02/07 05:16:28;;;;;;;29.77;15.55;;;-4.60;99.90;;;;;;5076774;28;20051;-79
2024/02/07 05:18:54;;;;;;;;;;;-4.60;99.90;;;;;;5074453;28;20041;-79
2024/02/07 05:21:19;;;;;;;25.33;13.68;;;-4.50;99.90;;;;;;5070772;28;20369;-81
2024/02/07 05:23:45;;;;;;;33.97;13.98;;;-4.50;99.90;;;;;;5072327;28;20378;-81
2024/02/07 05:26:12;;;;;;;30.77;14.15;;;-4.40;99.90;;;;;;5072574;28;20024;-82
2024/02/07 05:28:38;;;;;;;29.27;14.38;;;-4.40;99.90;;;;;;5071995;28;20072;-81
2024/02/07 05:31:03;;;;;;;32.05;14.65;;;-4.30;99.90;;;;;;5071247;28;20051;-81
2024/02/07 05:33:31;;;;;;;29.90;16.75;;;-4.30;99.90;;;;;;5071128;28;20029;-80
2024/02/07 05:35:57;;;;;;;32.35;14.80;;;-4.30;99.90;;;;;;5072053;28;20450;-80
2024/02/07 05:38:23;;;;;;;27.55;16.08;;;-4.20;99.90;;;;;;5072370;28;20036;-80
2024/02/07 05:40:49;;;;;;;30.73;15.82;;;-4.30;99.90;;;;;;5069607;28;20025;-80
2024/02/07 05:43:15;;;;;;;27.35;15.38;;;-4.20;99.90;;;;;;5078361;28;20441;-80
2024/02/07 05:45:41;;;;;;;27.98;14.77;;;-4.20;99.90;;;;;;5066278;28;20017;-80
2024/02/07 05:48:07;;;;;;;27.10;13.23;;;-4.30;99.90;;;;;;5072262;28;20029;-79
2024/02/07 05:50:35;;;;;;;29.55;15.38;;;-4.20;99.90;;;;;;5072501;28;20028;-80
2024/02/07 05:53:01;;;;;;;27.48;14.65;;;-4.30;99.90;;;;;;5064458;28;20038;-79
2024/02/07 05:55:26;;;;;;;29.48;14.68;;;-4.40;99.90;;;;;;5055485;28;20593;-78
2024/02/07 05:57:53;;;;;;;33.17;16.17;;;-4.40;99.90;;;;;;5065420;28;20477;-80
2024/02/07 06:00:19;;;;;;;35.10;17.13;;;-4.40;99.90;;;;;;5072204;28;20028;-81
2024/02/07 06:02:44;;;;;;;28.30;14.50;;;-4.40;99.90;;;;;;5075273;28;20028;-82
2024/02/07 06:05:11;;;;;;;27.15;15.18;;;-4.50;99.90;;;;;;5070384;28;20025;-83
2024/02/07 06:07:37;;;;;;;24.65;11.85;;;-4.40;99.90;;;;;;5071624;28;20029;-84
2024/02/07 06:10:03;;;;;;;29.83;17.38;;;-4.40;99.90;;;;;;5072494;28;20543;-80
2024/02/07 06:12:33;;;;;;;33.72;17.63;;;-4.50;99.90;;;;;;5070563;28;20028;-80
2024/02/07 06:14:59;;;;;;;25.02;14.98;;;-4.50;99.90;;;;;;5068734;28;20017;-82
2024/02/07 06:17:26;;;;;;;26.90;14.45;;;-4.60;99.90;;;;;;5065684;28;20036;-81
2024/02/07 06:19:52;;;;;;;30.30;16.13;;;-4.60;99.90;;;;;;5071140;28;20515;-82
2024/02/07 06:22:18;;;;;;;27.90;14.05;;;-4.60;99.90;;;;;;5071568;28;20056;-81
2024/02/07 06:24:44;;;;;;;27.40;14.95;;;-4.60;99.90;;;;;;5071634;28;20044;-82
2024/02/07 06:27:10;;;;;;;24.63;12.93;;;-4.50;99.90;;;;;;5071905;28;20070;-82
2024/02/07 06:29:35;;;;;;;24.35;13.18;;;-4.50;99.90;;;;;;5071656;28;20036;-83
2024/02/07 06:32:01;;;;;;;28.23;13.57;;;-4.50;99.90;;;;;;5073170;28;20111;-81
2024/02/07 06:34:31;;;;;;;27.05;15.75;;;-4.50;99.90;;;;;;5076203;28;20461;-83
2024/02/07 06:36:59;;;;;;;22.13;11.52;;;-4.40;99.90;;;;;;5075949;28;20479;-82
2024/02/07 06:39:25;;;;;;;24.85;12.35;;;-4.40;99.90;;;;;;5076250;28;20589;-82
2024/02/07 06:41:51;;;;;;;21.13;9.77;;;-4.40;99.90;;;;;;5075919;28;20020;-81
2024/02/07 06:44:16;;;;;;;21.95;11.10;;;-4.30;99.90;;;;;;5076722;28;20070;-83
2024/02/07 06:46:42;;;;;;;17.88;11.18;;;-4.30;99.90;;;;;;5078507;28;20166;-83
2024/02/07 06:49:09;;;;;;;21.15;10.88;;;-4.40;99.90;;;;;;5080212;28;20021;-83
2024/02/07 06:51:34;;;;;;;17.45;10.20;;;-4.50;99.90;;;;;;5071464;28;20103;-83
2024/02/07 06:54:00;;;;;;;23.10;8.38;;;-4.40;99.90;;;;;;5075829;28;20516;-83
2024/02/07 06:56:26;;;;;;;17.58;8.93;;;-4.40;99.90;;;;;;5076230;28;20059;-83
2024/02/07 06:58:52;;;;;;;21.83;10.60;;;-4.50;99.90;;;;;;5075858;28;20064;-82
2024/02/07 07:01:18;;;;;;;16.67;9.93;;;-4.40;99.90;;;;;;5079465;28;20056;-82
2024/02/07 07:03:50;;;;;;;21.23;10.20;;;-4.30;99.90;;;;;;5082943;28;20083;-83
2024/02/07 07:06:19;;;;;;;16.58;10.75;;;-4.30;99.90;;;;;;5077948;28;20497;-82
2024/02/07 07:08:45;;;;;;;18.83;9.82;;;-4.30;99.90;;;;;;5076749;28;20151;-81
2024/02/07 07:11:13;;;;;;;17.42;10.20;;;-4.30;99.90;;;;;;5077087;28;20126;-83
2024/02/07 07:13:39;;;;;;;25.42;12.57;;;-4.20;99.90;;;;;;5078592;28;20033;-82
2024/02/07 07:16:07;;;;;;;22.90;13.55;;;-4.10;99.90;;;;;;5075208;28;20367;-82
2024/02/07 07:18:33;;;;;;;34.15;16.75;;;-4.00;99.90;;;;;;5074848;28;20409;-82
2024/02/07 07:20:59;;;;;;;40.88;19.45;;;-4.00;99.90;;;;;;5074780;28;20020;-82
2024/02/07 07:23:24;;;;;;;44.42;18.88;;;-3.90;99.90;;;;;;5075674;28;20043;-83
2024/02/07 07:25:50;;;;;;;45.63;21.45;;;-3.90;99.90;;;;;;5075825;28;20021;-81
2024/02/07 07:28:16;;;;;;;40.80;24.85;;;-3.90;99.90;;;;;;5075951;28;20093;-82
2024/02/07 07:30:42;;;;;;;41.15;20.23;;;-3.80;99.90;;;;;;5078367;28;20059;-82
2024/02/07 07:33:11;;;;;;;38.90;18.95;;;-3.80;99.90;;;;;;5085241;28;20042;-83
2024/02/07 07:35:37;;;;;;;28.70;15.77;;;-3.70;99.90;;;;;;5085916;28;20214;-82
2024/02/07 07:38:12;;;;;;;26.10;14.05;;;-3.70;99.90;;;;;;5077906;28;20525;-80
2024/02/07 07:40:39;;;;;;;18.20;11.50;;;-3.60;99.90;;;;;;5076818;28;20024;-81
2024/02/07 07:43:05;;;;;;;18.83;11.47;;;-3.60;99.90;;;;;;5074967;28;20021;-82
2024/02/07 07:45:37;;;;;;;13.63;8.25;;;-3.60;99.90;;;;;;5079070;28;20096;-81
2024/02/07 07:48:03;;;;;;;14.75;9.20;;;-3.60;99.90;;;;;;5076832;28;20512;-83
2024/02/07 07:50:29;;;;;;;16.17;8.95;;;-3.70;99.90;;;;;;5075189;28;20385;-84
2024/02/07 07:52:55;;;;;;;13.82;9.63;;;-3.60;99.90;;;;;;5075202;28;20119;-81
2024/02/07 07:55:20;;;;;;;14.65;7.65;;;-3.60;99.90;;;;;;5075372;28;20457;-81
2024/02/07 07:57:47;;;;;;;12.45;8.40;;;-3.60;99.90;;;;;;5075093;28;20033;-83
2024/02/07 08:00:17;;;;;;;15.60;10.23;;;-3.70;99.90;;;;;;5075926;28;20492;-83
2024/02/07 08:02:43;;;;;;;14.60;8.30;;;-3.70;99.90;;;;;;5075600;28;20040;-83
2024/02/07 08:05:09;;;;;;;16.65;10.25;;;-3.70;99.90;;;;;;5087204;28;20028;-82
2024/02/07 08:07:35;;;;;;;15.80;8.68;;;-3.70;99.90;;;;;;5075114;28;20048;-82
2024/02/07 08:10:04;;;;;;;15.27;8.57;;;-3.70;99.90;;;;;;5074569;28;20043;-83
2024/02/07 08:12:29;;;;;;;16.65;9.55;;;-3.70;99.90;;;;;;5088564;28;20063;-82
2024/02/07 08:14:55;;;;;;;18.60;11.18;;;-3.70;99.90;;;;;;5074446;28;20028;-83
2024/02/07 08:17:36;;;;;;;14.95;9.07;;;-3.70;99.90;;;;;;5088751;28;20032;-83
2024/02/07 08:20:03;;;;;;;15.93;8.80;;;-3.70;99.90;;;;;;5076234;28;20024;-84
2024/02/07 08:22:29;;;;;;;17.97;9.83;;;-3.70;99.90;;;;;;5073918;28;20021;-82
2024/02/07 08:24:55;;;;;;;16.40;8.85;;;-3.70;99.90;;;;;;5073676;28;20028;-83
2024/02/07 08:27:21;;;;;;;15.98;9.85;;;-3.70;99.90;;;;;;5075275;28;20556;-81
2024/02/07 08:29:47;;;;;;;14.32;8.32;;;-3.70;99.90;;;;;;5080284;28;20023;-82
2024/02/07 08:32:12;;;;;;;13.98;9.38;;;-3.70;99.90;;;;;;5089934;28;20027;-83
2024/02/07 08:34:38;;;;;;;17.00;9.43;;;-3.70;99.90;;;;;;5079947;28;20052;-83
2024/02/07 08:37:06;;;;;;;15.52;10.00;;;-3.70;99.90;;;;;;5074225;28;20067;-83
2024/02/07 08:39:32;;;;;;;21.90;10.00;;;-3.60;99.90;;;;;;5076031;28;20037;-82
2024/02/07 08:41:59;;;;;;;15.50;10.63;;;-3.60;99.90;;;;;;5075660;28;20029;-84
2024/02/07 08:44:24;;;;;;;20.37;11.37;;;-3.60;99.90;;;;;;5074581;28;20028;-84
2024/02/07 08:46:50;;;;;;;17.98;10.43;;;-3.60;99.90;;;;;;5073807;28;20419;-82
2024/02/07 08:49:19;;;;;;;16.85;10.45;;;-3.60;99.90;;;;;;5080749;28;20088;-81
2024/02/07 08:51:45;;;;;;;22.92;12.70;;;-3.50;99.90;;;;;;5077084;28;20028;-83
2024/02/07 08:54:11;;;;;;;21.83;12.82;;;-3.50;99.90;;;;;;5071694;28;20021;-83
2024/02/07 08:56:37;;;;;;;18.20;10.68;;;-3.50;99.90;;;;;;5075846;28;20024;-83
2024/02/07 08:59:03;;;;;;;22.70;12.82;;;-3.50;99.90;;;;;;5074225;28;20024;-83
2024/02/07 09:01:28;;;;;;;29.27;14.52;;;-3.50;99.90;;;;;;5075370;28;20017;-84
2024/02/07 09:03:54;;;;;;;23.90;12.68;;;-3.40;99.90;;;;;;5073579;28;20025;-83
2024/02/07 09:06:20;;;;;;;26.08;15.43;;;-3.50;99.90;;;;;;5074272;28;20013;-83
2024/02/07 09:08:46;;;;;;;24.67;15.23;;;-3.40;99.90;;;;;;5077810;28;20091;-84
2024/02/07 09:11:12;;;;;;;33.75;19.35;;;-3.40;99.90;;;;;;5075382;28;20090;-83
2024/02/07 09:13:38;;;;;;;34.75;18.23;;;-3.40;99.90;;;;;;5073941;28;20104;-82
2024/02/07 09:16:04;;;;;;;21.33;12.48;;;-3.40;99.90;;;;;;5073036;28;20091;-84
2024/02/07 09:18:30;;;;;;;27.92;15.20;;;-3.40;99.90;;;;;;5074352;28;20036;-83
2024/02/07 09:20:56;;;;;;;25.75;12.57;;;-3.50;99.90;;;;;;5072716;28;20031;-83
2024/02/07 09:23:21;;;;;;;19.27;12.07;;;-3.50;99.90;;;;;;5072905;28;20024;-83
2024/02/07 09:25:47;;;;;;;22.95;11.95;;;-3.60;99.90;;;;;;5072825;28;20029;-83
2024/02/07 09:28:13;;;;;;;25.92;13.70;;;-3.60;99.90;;;;;;5073111;28;20069;-83
2024/02/07 09:30:39;;;;;;;21.30;14.85;;;-3.60;99.90;;;;;;5073522;28;20077;-83
2024/02/07 09:33:05;;;;;;;18.45;12.38;;;-3.60;99.90;;;;;;5073741;28;20455;-82
2024/02/07 09:35:31;;;;;;;18.92;11.25;;;-3.60;99.90;;;;;;5074988;28;20032;-83
2024/02/07 09:37:57;;;;;;;20.70;11.45;;;-3.60;99.90;;;;;;5077629;28;20032;-83
2024/02/07 09:40:23;;;;;;;26.20;13.18;;;-3.50;99.90;;;;;;5080928;28;20442;-83
2024/02/07 09:42:54;;;;;;;20.63;10.63;;;-3.60;99.90;;;;;;5072651;28;20051;-83
2024/02/07 09:45:21;;;;;;;23.70;13.65;;;-3.50;99.90;;;;;;5071685;28;20020;-83
2024/02/07 09:48:24;;;;;;;23.42;12.68;;;-3.60;99.90;;;;;;5073027;28;20047;-83
2024/02/07 09:50:58;;;;;;;24.85;13.73;;;-3.50;99.90;;;;;;5031224;28;20017;-83
2024/02/07 09:53:25;;;;;;;23.90;13.07;;;-3.50;99.90;;;;;;5030164;28;20033;-83
2024/02/07 09:55:53;;;;;;;22.65;12.30;;;-3.50;99.90;;;;;;5030243;28;20103;-83
2024/02/07 09:58:20;;;;;;;24.80;14.20;;;-3.40;99.90;;;;;;5013479;28;20048;-82
2024/02/07 10:00:53;;;;;;;23.52;13.02;;;-3.50;99.90;;;;;;5030450;28;20487;-83
2024/02/07 10:03:25;;;;;;;20.73;11.95;;;-3.50;99.90;;;;;;5030564;28;20029;-83
2024/02/07 10:05:54;;;;;;;15.80;10.65;;;-3.50;99.90;;;;;;5013871;28;20060;-84
2024/02/07 10:08:21;;;;;;;28.45;12.32;;;-3.50;99.90;;;;;;5013778;28;20042;-81
2024/02/07 10:10:47;;;;;;;22.02;13.15;;;-3.50;99.90;;;;;;5014320;28;20025;-84
2024/02/07 10:13:15;;;;;;;29.60;13.93;;;-3.50;99.90;;;;;;5030881;28;20078;-85
2024/02/07 10:15:42;;;;;;;28.17;14.10;;;-3.50;99.90;;;;;;5014688;28;20097;-83
2024/02/07 10:18:09;;;;;;;22.30;13.75;;;-3.50;99.90;;;;;;5045182;28;20048;-83
2024/02/07 10:20:35;;;;;;;28.85;13.10;;;-3.50;99.90;;;;;;5056835;28;20052;-83
2024/02/07 10:23:04;;;;;;;27.90;13.82;;;-3.50;99.90;;;;;;5035315;28;20471;-82
2024/02/07 10:25:30;;;;;;;22.55;12.02;;;-3.50;99.90;;;;;;5065945;28;20037;-83
2024/02/07 10:28:06;;;;;;;29.90;15.02;;;-3.50;99.90;;;;;;5076574;28;20021;-83
2024/02/07 10:30:32;;;;;;;26.52;13.88;;;-3.50;99.90;;;;;;5094192;28;20500;-84
2024/02/07 10:32:59;;;;;;;26.08;16.35;;;-3.50;99.90;;;;;;5093656;28;20019;-84
2024/02/07 10:35:25;;;;;;;23.63;13.52;;;-3.60;99.90;;;;;;5083963;28;20090;-83
2024/02/07 10:37:55;;;;;;;29.65;14.23;;;-3.50;99.90;;;;;;5080744;28;20037;-83
2024/02/07 10:40:21;;;;;;;29.13;15.80;;;-3.50;99.90;;;;;;5076629;28;20021;-82
2024/02/07 10:42:57;;;;;;;24.70;15.63;;;-3.50;99.90;;;;;;5075819;28;20029;-82
2024/02/07 10:45:23;;;;;;;25.20;12.68;;;-3.50;99.90;;;;;;5072884;28;20028;-83
2024/02/07 10:47:52;;;;;;;29.93;13.27;;;-3.40;99.90;;;;;;5072398;28;20103;-83
2024/02/07 10:50:23;;;;;;;36.83;14.52;;;-3.40;99.90;;;;;;5072230;28;20705;-83
2024/02/07 10:52:49;;;;;;;30.40;16.58;;;-3.40;99.90;;;;;;5072200;28;20027;-84
2024/02/07 10:55:16;;;;;;;28.55;13.48;;;-3.40;99.90;;;;;;5077259;28;20100;-83
2024/02/07 10:57:48;;;;;;;26.83;15.10;;;-3.40;99.90;;;;;;5079201;28;20031;-83
2024/02/07 11:00:16;;;;;;;29.00;14.07;;;-3.40;99.90;;;;;;5071885;28;20020;-84
2024/02/07 11:02:44;;;;;;;25.27;14.45;;;-3.40;99.90;;;;;;5072395;28;20024;-85
2024/02/07 11:05:10;;;;;;;21.15;12.25;;;-3.40;99.90;;;;;;5072749;28;20052;-84
2024/02/07 11:07:36;;;;;;;23.88;11.50;;;-3.40;99.90;;;;;;5086340;28;20054;-83
2024/02/07 11:10:03;;;;;;;20.92;12.20;;;-3.40;99.90;;;;;;5073058;28;20040;-83
2024/02/07 11:12:31;;;;;;;23.90;12.88;;;-3.50;99.90;;;;;;5074260;28;20478;-83
2024/02/07 11:14:58;;;;;;;28.23;12.63;;;-3.50;99.90;;;;;;5073480;28;20043;-82
2024/02/07 11:17:24;;;;;;;19.42;11.48;;;-3.50;99.90;;;;;;5075614;28;20106;-86
2024/02/07 11:19:50;;;;;;;24.00;13.10;;;-3.50;99.90;;;;;;5077211;28;20063;-82
2024/02/07 11:22:16;;;;;;;18.58;11.75;;;-3.50;99.90;;;;;;5076509;28;20024;-83
2024/02/07 11:24:44;;;;;;;22.15;11.93;;;-3.60;99.90;;;;;;5077229;28;20024;-83
2024/02/07 11:27:10;;;;;;;20.73;10.98;;;-3.70;99.90;;;;;;5078387;28;20114;-84
2024/02/07 11:29:36;;;;;;;17.85;11.02;;;-3.70;99.90;;;;;;5077545;28;20048;-84
2024/02/07 11:32:03;;;;;;;21.58;11.57;;;-3.80;99.90;;;;;;5075972;28;20107;-84
2024/02/07 11:34:31;;;;;;;24.85;13.18;;;-3.90;99.90;;;;;;5075782;28;20492;-83
2024/02/07 11:37:03;;;;;;;26.05;12.95;;;-3.90;99.90;;;;;;5084106;28;20059;-83
2024/02/07 11:39:37;;;;;;;19.35;11.57;;;-3.90;99.90;;;;;;5072334;28;20383;-83
2024/02/07 11:42:14;;;;;;;20.05;11.43;;;-3.90;99.90;;;;;;5078355;28;20017;-83
2024/02/07 11:44:57;;;;;;;21.45;12.27;;;-3.90;99.90;;;;;;5078668;28;20090;-84
2024/02/07 11:47:25;;;;;;;21.17;13.10;;;-3.90;99.90;;;;;;5085904;28;20044;-84
2024/02/07 11:50:00;;;;;;;23.08;13.80;;;-3.80;99.90;;;;;;5079481;28;20496;-83
2024/02/07 11:52:28;;;;;;;21.52;13.60;;;-3.80;99.90;;;;;;5076939;28;20435;-83
2024/02/07 11:54:54;;;;;;;23.42;13.95;;;-3.80;99.90;;;;;;5090586;28;20036;-84
2024/02/07 11:57:22;;;;;;;25.50;13.63;;;-3.80;99.90;;;;;;5077132;28;20023;-83
2024/02/07 11:59:48;;;;;;;25.15;15.27;;;-3.80;99.90;;;;;;5075292;28;20439;-83
2024/02/07 12:02:17;;;;;;;27.40;15.50;;;-3.80;99.90;;;;;;5085502;28;20060;-84
2024/02/07 12:04:44;;;;;;;27.75;15.40;;;-3.80;99.90;;;;;;5097900;28;20030;-83
2024/02/07 12:07:12;;;;;;;25.67;14.90;;;-3.80;99.90;;;;;;5076149;28;20020;-82
2024/02/07 12:09:38;;;;;;;25.08;13.07;;;-3.80;99.90;;;;;;5082959;28;20086;-84
2024/02/07 12:12:11;;;;;;;23.00;13.65;;;-3.80;99.90;;;;;;5087556;28;20059;-82
2024/02/07 12:14:37;;;;;;;16.90;10.63;;;-3.80;99.90;;;;;;5082382;28;20078;-83
2024/02/07 12:17:03;;;;;;;23.08;15.18;;;-3.80;99.90;;;;;;5074809;28;20473;-83
2024/02/07 12:19:29;;;;;;;25.30;11.88;;;-3.80;99.90;;;;;;5089061;28;20082;-83
2024/02/07 12:21:55;;;;;;;27.35;12.93;;;-3.80;99.90;;;;;;5077041;28;20025;-83
2024/02/07 12:24:21;;;;;;;17.67;10.88;;;-3.70;99.90;;;;;;5081271;28;20025;-83
2024/02/07 12:26:46;;;;;;;22.58;12.65;;;-3.80;99.90;;;;;;5075715;28;20073;-84
2024/02/07 12:29:20;;;;;;;23.83;11.25;;;-3.80;99.90;;;;;;5075836;28;20389;-82
2024/02/07 12:31:46;;;;;;;26.30;11.75;;;-3.90;99.90;;;;;;5074833;28;20102;-81
2024/02/07 12:34:12;;;;;;;23.15;11.70;;;-3.90;99.90;;;;;;5076121;28;20127;-83
2024/02/07 12:36:39;;;;;;;15.60;10.68;;;-4.00;99.90;;;;;;5071940;28;20031;-82
2024/02/07 12:39:07;;;;;;;19.00;12.27;;;-3.90;99.90;;;;;;5072694;28;20044;-84
2024/02/07 12:41:33;;;;;;;13.68;7.88;;;-3.90;99.90;;;;;;5072665;28;20055;-82
2024/02/07 12:43:59;;;;;;;20.63;9.70;;;-3.90;99.90;;;;;;5075011;28;20021;-81
2024/02/07 12:46:25;;;;;;;18.65;10.13;;;-3.90;99.90;;;;;;5077774;28;20028;-82
2024/02/07 12:48:51;;;;;;;16.73;9.80;;;-3.90;99.90;;;;;;5076306;28;20055;-83
2024/02/07 12:51:17;;;;;;;17.73;8.68;;;-3.90;99.90;;;;;;5075087;28;20080;-83
2024/02/07 12:53:43;;;;;;;15.52;8.48;;;-3.80;99.90;;;;;;5072560;28;20071;-82
2024/02/07 12:56:18;;;;;;;13.63;8.23;;;-3.80;99.90;;;;;;5073963;28;20108;-83
2024/02/07 12:58:44;;;;;;;19.70;10.38;;;-3.80;99.90;;;;;;5072821;28;20127;-83
2024/02/07 13:01:10;;;;;;;12.05;7.43;;;-3.80;99.90;;;;;;5073978;28;20103;-81
2024/02/07 13:03:35;;;;;;;16.30;8.63;;;-3.80;99.90;;;;;;5073901;28;20064;-81
2024/02/07 13:06:01;;;;;;;13.93;8.10;;;-3.80;99.90;;;;;;5073011;28;20016;-80
2024/02/07 13:08:27;;;;;;;20.50;10.57;;;-3.70;99.90;;;;;;5072922;28;20532;-83
2024/02/07 13:10:53;;;;;;;19.00;9.27;;;-3.70;99.90;;;;;;5072780;28;20070;-82
2024/02/07 13:13:19;;;;;;;18.27;10.60;;;-3.70;99.90;;;;;;5071825;28;20028;-83
2024/02/07 13:15:45;;;;;;;19.58;10.55;;;-3.70;99.90;;;;;;5072910;28;20031;-83
2024/02/07 13:18:11;;;;;;;17.85;10.15;;;-3.70;99.90;;;;;;5072716;28;20581;-83
2024/02/07 13:20:36;;;;;;;24.50;12.13;;;-3.60;99.90;;;;;;5071249;28;20027;-82
2024/02/07 13:23:03;;;;;;;16.83;10.82;;;-3.60;99.90;;;;;;5072809;28;20416;-82
2024/02/07 13:25:29;;;;;;;17.83;12.93;;;-3.60;99.90;;;;;;5073467;28;20070;-81
2024/02/07 13:27:54;;;;;;;19.52;11.77;;;-3.50;99.90;;;;;;5072910;28;20046;-81
2024/02/07 13:30:20;;;;;;;22.80;10.48;;;-3.50;99.90;;;;;;5072536;28;20036;-83
2024/02/07 13:32:46;;;;;;;16.75;10.68;;;-3.50;99.90;;;;;;5071221;28;20032;-82
2024/02/07 13:35:12;;;;;;;19.70;10.27;;;-3.40;99.90;;;;;;5063806;28;20017;-82
2024/02/07 13:37:38;;;;;;;20.13;10.15;;;-3.40;99.90;;;;;;5080787;28;20412;-82
2024/02/07 13:40:04;;;;;;;26.45;13.07;;;-3.40;99.90;;;;;;5072630;28;20020;-82
2024/02/07 13:42:30;;;;;;;19.92;12.45;;;-3.30;99.90;;;;;;5073507;28;20031;-82